createdAt,value
2022-08-26T00:02:02.239Z,98758.00
2022-08-26T00:04:29.936Z,98762.00
2022-08-26T00:07:03.221Z,98751.00
2022-08-26T00:09:32.344Z,98748.00
2022-08-26T00:12:09.224Z,98745.00
2022-08-26T00:14:54.559Z,98744.00
2022-08-26T00:18:00.928Z,98732.00
2022-08-26T00:20:41.510Z,98742.00
2022-08-26T00:23:17.256Z,98739.00
2022-08-26T00:25:44.346Z,98732.00
2022-08-26T00:28:19.021Z,98727.00
2022-08-26T00:30:48.477Z,98728.00
2022-08-26T00:33:25.309Z,98734.00
2022-08-26T00:36:08.229Z,98729.00
2022-08-26T00:38:46.831Z,98734.00
2022-08-26T00:41:21.282Z,98732.00
2022-08-26T00:43:57.675Z,98730.00
2022-08-26T00:46:36.240Z,98721.00
2022-08-26T00:49:57.383Z,98729.00
2022-08-26T00:52:27.619Z,98740.00
2022-08-26T00:55:20.491Z,98735.00
2022-08-26T00:57:49.382Z,98746.00
2022-08-26T01:00:28.279Z,98755.00
2022-08-26T01:02:55.410Z,98749.00
2022-08-26T01:05:23.262Z,98752.00
2022-08-26T01:07:56.307Z,98744.00
2022-08-26T01:10:27.259Z,98749.00
2022-08-26T01:13:11.247Z,98751.00
2022-08-26T01:15:46.303Z,98754.00
2022-08-26T01:18:20.275Z,98757.00
2022-08-26T01:21:09.840Z,98741.00
2022-08-26T01:23:49.614Z,98748.00
2022-08-26T01:26:22.889Z,98743.00
2022-08-26T01:28:58.277Z,98744.00
2022-08-26T01:31:32.995Z,98752.00
2022-08-26T01:34:27.287Z,98751.00
2022-08-26T01:37:15.517Z,98746.00
2022-08-26T01:39:50.332Z,98745.00
2022-08-26T01:42:17.962Z,98746.00
2022-08-26T01:45:06.289Z,98754.00
2022-08-26T01:47:34.387Z,98758.00
2022-08-26T01:50:12.289Z,98755.00
2022-08-26T01:52:43.906Z,98753.00
2022-08-26T01:55:32.187Z,98753.00
2022-08-26T01:58:03.081Z,98744.00
2022-08-26T02:00:36.386Z,98755.00
2022-08-26T02:03:11.312Z,98745.00
2022-08-26T02:05:39.607Z,98750.00
2022-08-26T02:08:13.316Z,98737.00
2022-08-26T02:10:41.214Z,98744.00
2022-08-26T02:13:10.062Z,98745.00
2022-08-26T02:15:43.314Z,98750.00
2022-08-26T02:18:14.065Z,98753.00
2022-08-26T02:20:47.379Z,98752.00
2022-08-26T02:23:18.664Z,98755.00
2022-08-26T02:26:02.362Z,98764.00
2022-08-26T02:28:33.026Z,98762.00
2022-08-26T02:31:06.368Z,98745.00
2022-08-26T02:33:34.921Z,98755.00
2022-08-26T02:36:09.327Z,98768.00
2022-08-26T02:38:39.082Z,98762.00
2022-08-26T02:41:13.314Z,98758.00
2022-08-26T02:43:40.969Z,98748.00
2022-08-26T02:46:21.647Z,98757.00
2022-08-26T02:49:01.364Z,98760.00
2022-08-26T02:51:28.499Z,98745.00
2022-08-26T02:54:02.361Z,98754.00
2022-08-26T02:56:29.332Z,98747.00
2022-08-26T02:58:56.253Z,98744.00
2022-08-26T03:01:34.397Z,98739.00
2022-08-26T03:04:03.115Z,98730.00
2022-08-26T03:06:36.374Z,98724.00
2022-08-26T03:09:04.469Z,98727.00
2022-08-26T03:11:38.373Z,98722.00
2022-08-26T03:14:05.627Z,98728.00
2022-08-26T03:16:43.362Z,98719.00
2022-08-26T03:19:10.309Z,98730.00
2022-08-26T03:21:44.355Z,98737.00
2022-08-26T03:24:14.261Z,98724.00
2022-08-26T03:26:52.161Z,98740.00
2022-08-26T03:29:20.618Z,98731.00
2022-08-26T03:31:54.394Z,98730.00
2022-08-26T03:34:21.274Z,98727.00
2022-08-26T03:36:55.376Z,98738.00
2022-08-26T03:39:22.854Z,98723.00
2022-08-26T03:41:56.452Z,98727.00
2022-08-26T03:44:23.361Z,98729.00
2022-08-26T03:46:57.429Z,98724.00
2022-08-26T03:49:24.433Z,98735.00
2022-08-26T03:51:57.415Z,98738.00
2022-08-26T03:54:24.711Z,98727.00
2022-08-26T03:56:58.435Z,98730.00
2022-08-26T03:59:25.621Z,98730.00
2022-08-26T04:01:59.467Z,98726.00
2022-08-26T04:04:26.458Z,98728.00
2022-08-26T04:07:04.400Z,98731.00
2022-08-26T04:09:32.214Z,98732.00
2022-08-26T04:12:08.423Z,98736.00
2022-08-26T04:14:35.307Z,98734.00
2022-08-26T04:17:11.419Z,98736.00
2022-08-26T04:19:38.296Z,98731.00
2022-08-26T04:22:11.386Z,98744.00
2022-08-26T04:24:38.291Z,98735.00
2022-08-26T04:27:06.832Z,98738.00
2022-08-26T04:29:41.440Z,98732.00
2022-08-26T04:32:14.425Z,98729.00
2022-08-26T04:34:43.457Z,98732.00
2022-08-26T04:37:11.857Z,98723.00
2022-08-26T04:39:45.394Z,98720.00
2022-08-26T04:42:12.398Z,98720.00
2022-08-26T04:44:46.419Z,98727.00
2022-08-26T04:47:20.404Z,98723.00
2022-08-26T04:49:47.955Z,98720.00
2022-08-26T04:52:21.426Z,98715.00
2022-08-26T04:54:49.791Z,98723.00
2022-08-26T04:57:23.438Z,98718.00
2022-08-26T04:59:50.302Z,98711.00
2022-08-26T05:02:23.439Z,98718.00
2022-08-26T05:04:52.072Z,98718.00
2022-08-26T05:07:25.442Z,98726.00
2022-08-26T05:09:52.377Z,98718.00
2022-08-26T05:12:19.295Z,98721.00
2022-08-26T05:14:52.481Z,98729.00
2022-08-26T05:17:19.396Z,98718.00
2022-08-26T05:19:53.461Z,98733.00
2022-08-26T05:22:20.377Z,98731.00
2022-08-26T05:24:47.353Z,98734.00
2022-08-26T05:27:21.447Z,98730.00
2022-08-26T05:29:48.408Z,98730.00
2022-08-26T05:32:28.474Z,98732.00
2022-08-26T05:34:56.349Z,98735.00
2022-08-26T05:37:23.406Z,98732.00
2022-08-26T05:39:56.530Z,98732.00
2022-08-26T05:42:30.466Z,98741.00
2022-08-26T05:44:57.337Z,98735.00
2022-08-26T05:47:25.341Z,98740.00
2022-08-26T05:49:58.470Z,98745.00
2022-08-26T05:52:26.113Z,98744.00
2022-08-26T05:54:59.465Z,98744.00
2022-08-26T05:57:39.985Z,98746.00
2022-08-26T06:00:10.242Z,98757.00
2022-08-26T06:02:43.515Z,98742.00
2022-08-26T06:05:21.471Z,98757.00
2022-08-26T06:07:48.954Z,98757.00
2022-08-26T06:10:32.211Z,98691.00
2022-08-26T06:13:04.590Z,98730.00
2022-08-26T06:15:50.562Z,98742.00
2022-08-26T06:18:21.666Z,98692.00
2022-08-26T06:20:57.712Z,98681.00
2022-08-26T06:23:25.706Z,98744.00
2022-08-26T06:25:52.823Z,98758.00
2022-08-26T06:28:26.537Z,98729.00
2022-08-26T06:31:00.214Z,98752.00
2022-08-26T06:33:34.501Z,98736.00
2022-08-26T06:36:01.475Z,98748.00
2022-08-26T06:38:36.489Z,98768.00
2022-08-26T06:41:03.464Z,98772.00
2022-08-26T06:43:36.509Z,98763.00
2022-08-26T06:46:07.424Z,98765.00
2022-08-26T06:48:40.524Z,98755.00
2022-08-26T06:51:29.517Z,98752.00
2022-08-26T06:53:57.119Z,98750.00
2022-08-26T06:56:33.519Z,98738.00
2022-08-26T06:59:00.558Z,98760.00
2022-08-26T07:01:38.640Z,98752.00
2022-08-26T07:04:10.610Z,98759.00
2022-08-26T07:06:46.543Z,98757.00
2022-08-26T07:09:13.574Z,98759.00
2022-08-26T07:11:47.541Z,98773.00
2022-08-26T07:14:16.153Z,98769.00
2022-08-26T07:16:49.543Z,98764.00
2022-08-26T07:19:30.052Z,98774.00
2022-08-26T07:22:04.539Z,98779.00
2022-08-26T07:24:43.964Z,98779.00
2022-08-26T07:27:14.441Z,98777.00
2022-08-26T07:29:42.037Z,98776.00
2022-08-26T07:32:15.549Z,98778.00
2022-08-26T07:34:43.176Z,98754.00
2022-08-26T07:37:16.547Z,98775.00
2022-08-26T07:39:44.625Z,98776.00
2022-08-26T07:42:19.536Z,98765.00
2022-08-26T07:44:46.506Z,98771.00
2022-08-26T07:47:24.835Z,98766.00
2022-08-26T07:49:53.701Z,98776.00
2022-08-26T07:52:27.669Z,98771.00
2022-08-26T07:54:56.609Z,98775.00
2022-08-26T07:57:30.584Z,98774.00
2022-08-26T08:00:04.567Z,98765.00
2022-08-26T08:02:38.582Z,98764.00
2022-08-26T08:05:12.620Z,98750.00
2022-08-26T08:07:45.358Z,98744.00
2022-08-26T08:10:29.554Z,98750.00
2022-08-26T08:13:03.567Z,98750.00
2022-08-26T08:15:37.559Z,98752.00
2022-08-26T08:18:15.662Z,98749.00
2022-08-26T08:21:04.788Z,98736.00
2022-08-26T08:23:42.597Z,98726.00
2022-08-26T08:26:17.587Z,98728.00
2022-08-26T08:28:51.576Z,98712.00
2022-08-26T08:31:54.548Z,98715.00
2022-08-26T08:34:19.586Z,98706.00
2022-08-26T08:36:55.615Z,98712.00
2022-08-26T08:39:22.544Z,98706.00
2022-08-26T08:42:16.569Z,98726.00
2022-08-26T08:44:52.832Z,98731.00
2022-08-26T08:47:45.001Z,98743.00
2022-08-26T08:50:29.612Z,98752.00
2022-08-26T08:53:10.805Z,98743.00
2022-08-26T08:56:25.626Z,98752.00
2022-08-26T08:59:21.877Z,98738.00
2022-08-26T09:01:58.658Z,98741.00
2022-08-26T09:05:02.776Z,98721.00
2022-08-26T09:07:42.626Z,98729.00
2022-08-26T09:10:42.619Z,98722.00
2022-08-26T09:13:16.987Z,98726.00
2022-08-26T09:16:06.632Z,98723.00
2022-08-26T09:18:42.749Z,98723.00
2022-08-26T09:21:21.598Z,98715.00
2022-08-26T09:23:57.638Z,98724.00
2022-08-26T09:26:52.637Z,98724.00
2022-08-26T09:29:32.527Z,98721.00
2022-08-26T09:32:30.634Z,98722.00
2022-08-26T09:35:27.220Z,98708.00
2022-08-26T09:38:01.655Z,98705.00
2022-08-26T09:40:41.618Z,98701.00
2022-08-26T09:43:13.919Z,98702.00
2022-08-26T09:45:51.130Z,98700.00
2022-08-26T09:48:41.218Z,98689.00
2022-08-26T09:51:31.010Z,98685.00
2022-08-26T09:54:08.071Z,98679.00
2022-08-26T09:56:37.502Z,98678.00
2022-08-26T09:59:11.649Z,98682.00
2022-08-26T10:01:43.219Z,98686.00
2022-08-26T10:04:21.753Z,98688.00
2022-08-26T10:06:55.951Z,98680.00
2022-08-26T10:09:29.900Z,98685.00
2022-08-26T10:12:02.416Z,98690.00
2022-08-26T10:14:52.674Z,98699.00
2022-08-26T10:17:30.787Z,98691.00
2022-08-26T10:20:24.105Z,98699.00
2022-08-26T10:23:16.849Z,98692.00
2022-08-26T10:26:15.662Z,98695.00
2022-08-26T10:29:00.679Z,98693.00
2022-08-26T10:31:38.131Z,98699.00
2022-08-26T10:34:14.085Z,98702.00
2022-08-26T10:37:16.131Z,98698.00
2022-08-26T10:40:19.697Z,98705.00
2022-08-26T10:42:56.669Z,98698.00
2022-08-26T10:45:34.709Z,98696.00
2022-08-26T10:48:06.850Z,98695.00
2022-08-26T10:50:48.688Z,98688.00
2022-08-26T10:53:32.713Z,98676.00
2022-08-26T10:56:19.122Z,98677.00
2022-08-26T10:59:18.149Z,98675.00
2022-08-26T11:02:09.731Z,98669.00
2022-08-26T11:04:37.913Z,98664.00
2022-08-26T11:07:53.714Z,98662.00
2022-08-26T11:10:21.730Z,98661.00
2022-08-26T11:13:12.726Z,98656.00
2022-08-26T11:15:39.518Z,98650.00
2022-08-26T11:18:15.707Z,98659.00
2022-08-26T11:20:47.361Z,98654.00
2022-08-26T11:23:29.719Z,98652.00
2022-08-26T11:25:57.021Z,98655.00
2022-08-26T11:28:53.709Z,98653.00
2022-08-26T11:31:25.397Z,98650.00
2022-08-26T11:34:00.737Z,98647.00
2022-08-26T11:36:45.562Z,98656.00
2022-08-26T11:39:54.053Z,98641.00
2022-08-26T11:42:35.591Z,98636.00
2022-08-26T11:45:22.730Z,98645.00
2022-08-26T11:47:50.447Z,98644.00
2022-08-26T11:50:26.733Z,98623.00
2022-08-26T11:52:56.167Z,98638.00
2022-08-26T11:55:29.731Z,98642.00
2022-08-26T11:57:58.379Z,98646.00
2022-08-26T12:00:58.132Z,98651.00
2022-08-26T12:03:49.514Z,98639.00
2022-08-26T12:06:45.348Z,98653.00
2022-08-26T12:09:33.397Z,98654.00
2022-08-26T12:12:39.772Z,98662.00
2022-08-26T12:15:14.520Z,98661.00
2022-08-26T12:17:53.406Z,98659.00
2022-08-26T12:20:37.338Z,98674.00
2022-08-26T12:23:11.760Z,98669.00
2022-08-26T12:25:46.441Z,98669.00
2022-08-26T12:28:21.756Z,98651.00
2022-08-26T12:31:11.806Z,98659.00
2022-08-26T12:33:38.880Z,98656.00
2022-08-26T12:36:12.792Z,98657.00
2022-08-26T12:38:39.747Z,98658.00
2022-08-26T12:41:12.775Z,98659.00
2022-08-26T12:43:44.750Z,98654.00
2022-08-26T12:46:22.780Z,98638.00
2022-08-26T12:48:49.694Z,98624.00
2022-08-26T12:51:34.799Z,98630.00
2022-08-26T12:54:01.996Z,98636.00
2022-08-26T12:56:44.762Z,98637.00
2022-08-26T12:59:31.792Z,98620.00
2022-08-26T13:02:04.926Z,98617.00
2022-08-26T13:04:38.207Z,98618.00
2022-08-26T13:07:29.802Z,98622.00
2022-08-26T13:10:04.787Z,98618.00
2022-08-26T13:12:40.807Z,98624.00
2022-08-26T13:15:08.308Z,98616.00
2022-08-26T13:17:41.817Z,98609.00
2022-08-26T13:20:15.820Z,98596.00
2022-08-26T13:22:53.879Z,98608.00
2022-08-26T13:25:26.194Z,98593.00
2022-08-26T13:27:59.823Z,98593.00
2022-08-26T13:30:26.694Z,98582.00
2022-08-26T13:33:04.009Z,98597.00
2022-08-26T13:35:30.884Z,98585.00
2022-08-26T13:38:03.835Z,98597.00
2022-08-26T13:40:34.671Z,98592.00
2022-08-26T13:43:08.022Z,98593.00
2022-08-26T13:45:35.022Z,98591.00
2022-08-26T13:48:08.970Z,98591.00
2022-08-26T13:50:35.920Z,98577.00
2022-08-26T13:53:02.842Z,98580.00
2022-08-26T13:55:35.823Z,98579.00
2022-08-26T13:58:08.983Z,98577.00
2022-08-26T14:00:36.394Z,98580.00
2022-08-26T14:03:13.213Z,98576.00
2022-08-26T14:05:40.512Z,98579.00
2022-08-26T14:08:13.839Z,98567.00
2022-08-26T14:13:28.837Z,98570.00
2022-08-26T14:16:01.904Z,98562.00
2022-08-26T14:18:31.961Z,98558.00
2022-08-26T14:21:05.855Z,98549.00
2022-08-26T14:23:32.796Z,98555.00
2022-08-26T14:25:59.737Z,98554.00
2022-08-26T14:28:32.891Z,98541.00
2022-08-26T14:30:59.789Z,98546.00
2022-08-26T14:33:34.842Z,98541.00
2022-08-26T14:36:07.881Z,98551.00
2022-08-26T14:38:34.759Z,98551.00
2022-08-26T14:41:09.867Z,98551.00
2022-08-26T14:43:43.866Z,98554.00
2022-08-26T14:46:16.937Z,98546.00
2022-08-26T14:48:43.814Z,98552.00
2022-08-26T14:51:16.874Z,98540.00
2022-08-26T14:53:43.771Z,98549.00
2022-08-26T14:56:16.920Z,98537.00
2022-08-26T14:58:43.787Z,98548.00
2022-08-26T15:01:16.920Z,98553.00
2022-08-26T15:03:43.812Z,98552.00
2022-08-26T15:06:23.875Z,98552.00
2022-08-26T15:08:50.761Z,98548.00
2022-08-26T15:11:30.887Z,98544.00
2022-08-26T15:13:57.776Z,98557.00
2022-08-26T15:16:31.020Z,98555.00
2022-08-26T15:19:00.410Z,98555.00
2022-08-26T15:21:33.903Z,98560.00
2022-08-26T15:24:01.000Z,98559.00
2022-08-26T15:26:34.890Z,98558.00
2022-08-26T15:29:07.936Z,98551.00
2022-08-26T15:31:34.965Z,98557.00
2022-08-26T15:34:15.979Z,98554.00
2022-08-26T15:36:49.920Z,98546.00
2022-08-26T15:39:17.105Z,98545.00
2022-08-26T15:41:50.920Z,98545.00
2022-08-26T15:44:17.810Z,98531.00
2022-08-26T15:46:54.245Z,98541.00
2022-08-26T15:49:23.534Z,98539.00
2022-08-26T15:51:56.918Z,98545.00
2022-08-26T15:54:23.982Z,98547.00
2022-08-26T15:56:56.925Z,98543.00
2022-08-26T15:59:23.805Z,98539.00
2022-08-26T16:01:51.453Z,98543.00
2022-08-26T16:04:24.926Z,98537.00
2022-08-26T16:06:52.119Z,98540.00
2022-08-26T16:09:27.935Z,98551.00
2022-08-26T16:11:55.097Z,98538.00
2022-08-26T16:14:28.958Z,98529.00
2022-08-26T16:16:58.017Z,98535.00
2022-08-26T16:19:30.970Z,98549.00
2022-08-26T16:22:03.962Z,98542.00
2022-08-26T16:24:30.834Z,98530.00
2022-08-26T16:27:03.974Z,98530.00
2022-08-26T16:29:36.959Z,98524.00
2022-08-26T16:32:04.115Z,98520.00
2022-08-26T16:34:37.980Z,98522.00
2022-08-26T16:37:14.130Z,98514.00
2022-08-26T16:39:48.168Z,98508.00
2022-08-26T16:42:15.112Z,98502.00
2022-08-26T16:44:48.980Z,98512.00
2022-08-26T16:47:16.110Z,98500.00
2022-08-26T16:49:42.968Z,98504.00
2022-08-26T16:52:17.002Z,98507.00
2022-08-26T16:54:44.060Z,98504.00
2022-08-26T16:57:17.977Z,98504.00
2022-08-26T16:59:44.852Z,98503.00
2022-08-26T17:02:18.042Z,98504.00
2022-08-26T17:04:46.149Z,98490.00
2022-08-26T17:07:21.005Z,98488.00
2022-08-26T17:10:00.989Z,98491.00
2022-08-26T17:12:34.998Z,98490.00
2022-08-26T17:15:03.507Z,98493.00
2022-08-26T17:17:37.002Z,98496.00
2022-08-26T17:20:05.157Z,98496.00
2022-08-26T17:22:39.000Z,98488.00
2022-08-26T17:25:24.459Z,98495.00
2022-08-26T17:27:58.004Z,98490.00
2022-08-26T17:30:29.713Z,98494.00
2022-08-26T17:33:11.004Z,98493.00
2022-08-26T17:35:38.062Z,98492.00
2022-08-26T17:38:11.122Z,98491.00
2022-08-26T17:40:45.038Z,98480.00
2022-08-26T17:43:12.580Z,98478.00
2022-08-26T17:45:40.272Z,98475.00
2022-08-26T17:48:14.034Z,98473.00
2022-08-26T17:50:41.854Z,98473.00
2022-08-26T17:53:09.035Z,98473.00
2022-08-26T17:55:48.065Z,98473.00
2022-08-26T17:58:23.766Z,98472.00
2022-08-26T18:00:52.102Z,98477.00
2022-08-26T18:03:26.237Z,98478.00
2022-08-26T18:05:53.208Z,98476.00
2022-08-26T18:08:20.485Z,98480.00
2022-08-26T18:10:54.047Z,98462.00
2022-08-26T18:13:20.940Z,98474.00
2022-08-26T18:15:54.090Z,98467.00
2022-08-26T18:18:20.993Z,98467.00
2022-08-26T18:21:01.198Z,98473.00
2022-08-26T18:23:28.674Z,98471.00
2022-08-26T18:26:05.048Z,98468.00
2022-08-26T18:28:32.188Z,98476.00
2022-08-26T18:31:06.103Z,98462.00
2022-08-26T18:33:32.982Z,98475.00
2022-08-26T18:36:06.065Z,98469.00
2022-08-26T18:38:32.930Z,98478.00
2022-08-26T18:41:11.048Z,98474.00
2022-08-26T18:43:37.902Z,98463.00
2022-08-26T18:46:13.106Z,98473.00
2022-08-26T18:48:40.550Z,98475.00
2022-08-26T18:51:14.070Z,98481.00
2022-08-26T18:53:40.950Z,98476.00
2022-08-26T18:56:16.653Z,98480.00
2022-08-26T18:58:45.637Z,98486.00
2022-08-26T19:01:19.172Z,98477.00
2022-08-26T19:03:46.433Z,98480.00
2022-08-26T19:06:22.077Z,98481.00
2022-08-26T19:08:49.984Z,98475.00
2022-08-26T19:11:32.501Z,98467.00
2022-08-26T19:14:08.351Z,98466.00
2022-08-26T19:16:42.148Z,98470.00
2022-08-26T19:19:16.398Z,98469.00
2022-08-26T19:21:50.104Z,98469.00
2022-08-26T19:24:17.609Z,98460.00
2022-08-26T19:26:58.385Z,98468.00
2022-08-26T19:29:32.510Z,98469.00
2022-08-26T19:32:06.120Z,98470.00
2022-08-26T19:34:32.990Z,98468.00
2022-08-26T19:37:06.106Z,98469.00
2022-08-26T19:39:32.981Z,98471.00
2022-08-26T19:42:06.145Z,98478.00
2022-08-26T19:44:33.010Z,98489.00
2022-08-26T19:47:06.129Z,98483.00
2022-08-26T19:49:33.038Z,98479.00
2022-08-26T19:51:59.930Z,98488.00
2022-08-26T19:54:33.106Z,98499.00
2022-08-26T19:57:00.013Z,98494.00
2022-08-26T19:59:33.124Z,98504.00
2022-08-26T20:02:01.121Z,98500.00
2022-08-26T20:04:37.133Z,98506.00
2022-08-26T20:07:04.415Z,98506.00
2022-08-26T20:09:39.135Z,98514.00
2022-08-26T20:12:06.817Z,98503.00
2022-08-26T20:14:41.142Z,98506.00
2022-08-26T20:17:14.125Z,98508.00
2022-08-26T20:19:41.018Z,98502.00
2022-08-26T20:22:15.143Z,98502.00
2022-08-26T20:24:42.053Z,98503.00
2022-08-26T20:27:15.140Z,98507.00
2022-08-26T20:29:44.360Z,98508.00
2022-08-26T20:32:11.417Z,98498.00
2022-08-26T20:34:45.140Z,98507.00
2022-08-26T20:37:12.033Z,98504.00
2022-08-26T20:39:45.155Z,98507.00
2022-08-26T20:42:20.072Z,98501.00
2022-08-26T20:44:54.152Z,98500.00
2022-08-26T20:47:28.168Z,98508.00
2022-08-26T20:49:56.170Z,98517.00
2022-08-26T20:52:29.237Z,98510.00
2022-08-26T20:54:56.133Z,98531.00
2022-08-26T20:57:23.055Z,98527.00
2022-08-26T20:59:56.172Z,98529.00
2022-08-26T21:02:23.035Z,98529.00
2022-08-26T21:04:50.013Z,98529.00
2022-08-26T21:07:23.173Z,98530.00
2022-08-26T21:09:50.049Z,98526.00
2022-08-26T21:12:25.182Z,98522.00
2022-08-26T21:14:52.145Z,98529.00
2022-08-26T21:17:25.257Z,98540.00
2022-08-26T21:19:52.267Z,98547.00
2022-08-26T21:22:19.241Z,98542.00
2022-08-26T21:24:53.970Z,98538.00
2022-08-26T21:27:27.186Z,98541.00
2022-08-26T21:30:01.210Z,98538.00
2022-08-26T21:32:28.190Z,98540.00
2022-08-26T21:35:03.201Z,98543.00
2022-08-26T21:37:30.101Z,98535.00
2022-08-26T21:40:04.261Z,98535.00
2022-08-26T21:42:44.202Z,98546.00
2022-08-26T21:45:18.207Z,98544.00
2022-08-26T21:47:45.243Z,98539.00
2022-08-26T21:50:24.067Z,98545.00
2022-08-26T21:52:51.017Z,98537.00
2022-08-26T21:55:25.819Z,98537.00
2022-08-26T22:01:23.670Z,98539.00
2022-08-26T22:06:57.225Z,98543.00
2022-08-26T22:09:40.198Z,98548.00
2022-08-26T22:12:11.674Z,98551.00
2022-08-26T22:14:45.212Z,98548.00
2022-08-26T22:17:15.437Z,98545.00
2022-08-26T22:22:49.392Z,98519.00
2022-08-26T22:25:16.504Z,98534.00
2022-08-26T22:27:50.225Z,98527.00
2022-08-26T22:30:17.355Z,98543.00
2022-08-26T22:32:56.275Z,98544.00
2022-08-26T22:36:26.011Z,98552.00
2022-08-26T22:39:08.214Z,98536.00
2022-08-26T22:41:50.381Z,98542.00
2022-08-26T22:44:38.254Z,98541.00
2022-08-26T22:47:14.568Z,98553.00
2022-08-26T22:49:50.340Z,98543.00
2022-08-26T22:52:26.213Z,98565.00
2022-08-26T22:57:54.262Z,98557.00
2022-08-26T23:00:21.229Z,98566.00
2022-08-26T23:06:51.269Z,98553.00
2022-08-26T23:09:18.742Z,98566.00
2022-08-26T23:11:53.288Z,98557.00
2022-08-26T23:14:20.176Z,98546.00
2022-08-26T23:16:53.356Z,98558.00
2022-08-26T23:19:21.835Z,98550.00
2022-08-26T23:21:55.252Z,98564.00
2022-08-26T23:24:22.154Z,98563.00
2022-08-26T23:26:55.280Z,98554.00
2022-08-26T23:29:28.297Z,98558.00
2022-08-26T23:31:55.576Z,98563.00
2022-08-26T23:34:22.499Z,98565.00
2022-08-26T23:36:57.269Z,98560.00
2022-08-26T23:39:24.245Z,98558.00
2022-08-26T23:41:58.290Z,98559.00
2022-08-26T23:44:31.274Z,98554.00
2022-08-26T23:46:58.514Z,98553.00
2022-08-26T23:49:32.298Z,98547.00
2022-08-26T23:51:59.202Z,98545.00
2022-08-26T23:54:26.097Z,98546.00
2022-08-26T23:56:59.337Z,98543.00
2022-08-26T23:59:26.248Z,98534.00
